Time;durP1;ratioP1;P1;durP2;ratioP2;P2;SDS_P1;SDS_P2;PMS_P1;PMS_P2;Temp;Humidity;BMP_temperature;BMP_pressure;BME280_temperature;BME280_humidity;BME280_pressure;Samples;Min_cycle;Max_cycle;Signal;HPM_P1;HPM_P2
2023/01/29 00:01:38;;;;;;;40.75;16.37;;;;;;;2.97;59.35;100451.03;5268016;27;20068;-90
2023/01/29 00:04:04;;;;;;;36.33;15.60;;;;;;;2.88;59.34;100443.22;5267939;27;20139;-90
2023/01/29 00:06:29;;;;;;;39.83;15.80;;;;;;;2.77;59.33;100445.66;5267838;27;20322;-89
2023/01/29 00:08:55;;;;;;;39.15;16.42;;;;;;;2.86;59.33;100447.50;5267964;27;20084;-91
2023/01/29 00:11:20;;;;;;;44.47;17.00;;;;;;;2.77;59.33;100443.09;5267997;27;20106;-91
2023/01/29 00:13:46;;;;;;;38.08;15.63;;;;;;;2.69;59.32;100448.16;5267948;27;20137;-90
2023/01/29 00:16:12;;;;;;;44.20;17.05;;;;;;;2.61;59.32;100454.94;5268053;27;20072;-90
2023/01/29 00:18:38;;;;;;;41.45;16.80;;;;;;;2.83;59.34;100462.84;5267978;27;20064;-90
2023/01/29 00:21:08;;;;;;;39.13;14.52;;;;;;;2.79;59.33;100459.41;5268269;27;20072;-89
2023/01/29 00:23:34;;;;;;;38.78;15.45;;;;;;;2.80;59.32;100467.97;5268232;27;20203;-90
2023/01/29 00:26:01;;;;;;;37.10;15.98;;;;;;;2.72;59.32;100473.03;5268224;27;20078;-89
2023/01/29 00:28:27;;;;;;;46.92;16.95;;;;;;;2.72;59.32;100470.47;5268420;27;20065;-89
2023/01/29 00:30:52;;;;;;;44.55;15.80;;;;;;;2.74;59.33;100474.78;5267716;27;20052;-89
2023/01/29 00:33:17;;;;;;;36.85;16.52;;;;;;;2.78;59.32;100476.53;5267840;27;20076;-90
2023/01/29 00:35:43;;;;;;;38.38;15.57;;;;;;;2.70;59.32;100477.31;5285698;27;20394;-90
2023/01/29 00:38:08;;;;;;;38.47;15.43;;;;;;;2.72;59.32;100480.75;5268060;27;20108;-89
2023/01/29 00:44:56;;;;;;;44.13;16.00;;;;;;;2.67;59.32;100490.12;5268121;27;20065;-89
2023/01/29 00:46:06;;;;;;;38.50;14.95;;;;;;;2.66;59.33;100480.69;5291688;27;20059;-90
2023/01/29 00:48:32;;;;;;;35.95;16.35;;;;;;;2.75;59.33;100486.78;5267754;27;20065;-90
2023/01/29 00:50:57;;;;;;;36.95;15.45;;;;;;;2.67;59.33;100488.41;5267898;27;20107;-89
2023/01/29 00:53:23;;;;;;;35.95;14.30;;;;;;;2.80;59.34;100494.53;5267984;27;20060;-90
2023/01/29 00:55:48;;;;;;;39.65;16.35;;;;;;;2.82;59.34;100495.41;5268052;27;20419;-89
2023/01/29 00:58:21;;;;;;;39.15;15.88;;;;;;;2.84;59.34;100490.28;5267703;27;20064;-90
2023/01/29 01:00:49;;;;;;;45.92;16.70;;;;;;;2.89;59.34;100486.94;5269860;27;20119;-90
2023/01/29 01:03:15;;;;;;;35.55;15.52;;;;;;;2.86;59.33;100491.19;5267655;27;20053;-91
2023/01/29 01:05:41;;;;;;;34.38;15.98;;;;;;;2.60;59.32;100486.62;5285435;27;20409;-90
2023/01/29 01:10:19;;;;;;;34.38;14.02;;;;;;;2.59;59.32;100487.44;5267893;27;20127;-90
2023/01/29 01:11:04;;;;;;;39.58;16.50;;;;;;;2.72;59.32;100491.03;5291613;27;20094;-91
2023/01/29 01:13:31;;;;;;;39.85;15.73;;;;;;;2.59;59.32;100490.00;5267900;27;20744;-90
2023/01/29 01:15:56;;;;;;;35.88;15.50;;;;;;;2.73;59.33;100491.03;5267921;27;20115;-89
2023/01/29 01:18:22;;;;;;;39.95;16.52;;;;;;;2.61;59.32;100485.78;5267305;27;20115;-89
2023/01/29 01:20:50;;;;;;;37.17;14.52;;;;;;;2.70;59.33;100483.31;5267745;27;20081;-90
2023/01/29 01:23:17;;;;;;;38.15;15.27;;;;;;;2.68;59.33;100486.72;5268581;27;20064;-89
2023/01/29 01:25:43;;;;;;;41.78;16.08;;;;;;;2.65;59.33;100487.53;5268153;27;20049;-87
2023/01/29 01:28:09;;;;;;;34.78;16.00;;;;;;;2.59;59.32;100494.28;5267531;27;20116;-88
2023/01/29 01:30:35;;;;;;;45.58;15.27;;;;;;;2.68;59.33;100497.84;5268315;27;20060;-90
2023/01/29 01:33:00;;;;;;;35.08;14.90;;;;;;;2.73;59.33;100492.75;5267556;27;20143;-90
2023/01/29 01:35:25;;;;;;;41.88;15.60;;;;;;;2.70;59.33;100493.59;5267630;27;20373;-90
2023/01/29 01:37:51;;;;;;;39.17;15.45;;;;;;;2.60;59.32;100494.34;5267155;27;20456;-89
2023/01/29 01:40:18;;;;;;;40.35;15.50;;;;;;;2.59;59.32;100490.00;5267259;27;20406;-92
2023/01/29 01:42:47;;;;;;;36.58;15.23;;;;;;;2.63;59.32;100502.06;5286147;27;20432;-91
2023/01/29 01:45:33;;;;;;;35.90;15.55;;;;;;;2.61;59.32;100502.91;5268195;27;20088;-91
2023/01/29 01:48:07;;;;;;;40.70;16.25;;;;;;;2.53;59.32;100507.06;5268367;27;20092;-92
2023/01/29 01:50:34;;;;;;;39.20;15.60;;;;;;;2.58;59.33;100506.28;5304420;27;20437;-92
2023/01/29 01:53:03;;;;;;;40.60;15.85;;;;;;;2.62;59.32;100502.06;5286427;27;20056;-92
2023/01/29 01:55:31;;;;;;;35.90;16.30;;;;;;;2.51;59.32;100508.75;5268511;27;20053;-92
2023/01/29 01:58:05;;;;;;;39.70;16.77;;;;;;;2.49;59.31;100507.87;5268743;27;20114;-92
2023/01/29 02:00:30;;;;;;;38.92;15.25;;;;;;;2.47;59.31;100510.44;5268648;27;20061;-92
2023/01/29 02:11:16;;;;;;;38.47;15.02;;;;;;;2.38;59.31;100508.63;5307441;27;20072;-92
2023/01/29 02:13:41;;;;;;;42.45;14.75;;;;;;;2.26;59.30;100518.72;5268542;27;20053;-92
2023/01/29 02:16:07;;;;;;;34.42;15.23;;;;;;;2.26;59.30;100515.28;5271126;27;20085;-93
2023/01/29 02:18:36;;;;;;;32.05;13.52;;;;;;;2.20;59.29;100516.06;5272980;27;20069;-92
2023/01/29 02:21:24;;;;;;;;;;;;;;;2.29;59.30;100517.88;5273860;27;20060;-92
2023/01/29 02:24:07;;;;;;;36.13;12.50;;;;;;;2.24;59.30;100522.97;5305000;27;20308;-90
2023/01/29 02:27:03;;;;;;;34.22;14.60;;;;;;;2.12;59.29;100517.63;5304937;27;20071;-91
2023/01/29 02:29:35;;;;;;;34.85;13.40;;;;;;;2.26;59.30;100521.28;5265655;27;20071;-90
2023/01/29 02:32:13;;;;;;;31.92;13.27;;;;;;;1.97;59.28;100532.84;5305133;27;20126;-91
2023/01/29 02:38:11;;;;;;;32.67;13.15;;;;;;;2.01;59.29;100532.03;5307805;27;20112;-92
2023/01/29 02:40:37;;;;;;;34.47;14.07;;;;;;;1.88;59.28;100532.69;5304762;27;20417;-90
2023/01/29 02:43:12;;;;;;;35.05;14.43;;;;;;;1.91;59.28;100535.31;5304845;27;20071;-90
2023/01/29 02:45:45;;;;;;;32.45;13.88;;;;;;;2.13;59.30;100533.09;5269101;27;20069;-90
2023/01/29 02:48:18;;;;;;;31.73;12.88;;;;;;;2.15;59.30;100528.84;5286490;27;20048;-90
2023/01/29 02:50:48;;;;;;;36.85;14.25;;;;;;;1.99;59.29;100542.28;5268479;27;20057;-90
2023/01/29 02:53:14;;;;;;;;;;;;;;;1.84;59.28;100539.47;5268541;27;20076;-91
2023/01/29 02:55:44;;;;;;;30.67;11.02;;;;;;;1.99;59.29;100541.44;5286153;27;19984;-90
2023/01/29 02:58:14;;;;;;;30.45;12.65;;;;;;;2.00;59.29;100543.16;5286502;27;20060;-90
2023/01/29 03:00:40;;;;;;;;;;;;;;;1.81;59.27;100548.00;5286661;27;21020;-93
2023/01/29 03:03:23;;;;;;;37.10;12.77;;;;;;;1.90;59.28;100542.16;5305055;27;19970;-92
2023/01/29 03:05:57;;;;;;;36.67;13.88;;;;;;;2.01;59.29;100550.03;5286433;27;20100;-92
2023/01/29 03:08:44;;;;;;;32.67;13.18;;;;;;;1.94;59.29;100549.06;5286713;27;20068;-92
2023/01/29 03:11:13;;;;;;;29.87;11.52;;;;;;;1.86;59.28;100542.94;5269890;27;20057;-91
2023/01/29 03:13:40;;;;;;;31.08;12.65;;;;;;;1.88;59.28;100546.38;5268950;27;20060;-91
2023/01/29 03:16:21;;;;;;;30.27;11.93;;;;;;;1.97;59.28;100545.69;5286279;27;20852;-91
2023/01/29 03:18:54;;;;;;;34.05;12.07;;;;;;;2.11;59.29;100552.72;5268260;27;20057;-91
2023/01/29 03:32:27;;;;;;;33.40;11.90;;;;;;;2.13;59.30;100561.34;5292209;27;20106;-91
2023/01/29 03:34:57;;;;;;;26.08;11.70;;;;;;;2.34;59.30;100555.63;5269637;27;20079;-89
2023/01/29 03:37:29;;;;;;;30.45;10.82;;;;;;;2.44;59.31;100557.50;5269326;27;20095;-88
2023/01/29 03:39:55;;;;;;;23.52;10.55;;;;;;;2.48;59.31;100560.97;5286849;27;20112;-89
2023/01/29 03:42:28;;;;;;;32.17;12.10;;;;;;;2.61;59.32;100560.31;5268694;27;20079;-88
2023/01/29 03:45:07;;;;;;;24.67;10.45;;;;;;;2.57;59.31;100566.22;5269601;27;20024;-88
2023/01/29 03:47:46;;;;;;;25.65;10.25;;;;;;;2.39;59.31;100573.72;5269449;27;20049;-90
2023/01/29 03:50:20;;;;;;;30.60;11.93;;;;;;;2.70;59.33;100565.56;5270386;27;20144;-89
2023/01/29 03:52:47;;;;;;;22.50;10.95;;;;;;;2.69;59.33;100568.97;5286690;27;20054;-91
2023/01/29 03:55:40;;;;;;;25.15;10.38;;;;;;;2.75;59.33;100571.63;5287081;27;20131;-91
2023/01/29 03:58:29;;;;;;;25.37;10.75;;;;;;;2.77;59.33;100577.62;5275936;27;20052;-91
2023/01/29 04:00:57;;;;;;;22.10;9.50;;;;;;;2.68;59.33;100569.81;5287011;27;20061;-91
2023/01/29 04:03:47;;;;;;;20.08;9.50;;;;;;;2.84;59.34;100564.84;5277468;27;20061;-91
2023/01/29 04:06:19;;;;;;;23.42;9.52;;;;;;;2.83;59.34;100565.69;5273763;27;20065;-91
2023/01/29 04:08:54;;;;;;;25.52;10.35;;;;;;;2.88;59.34;100567.50;5266234;27;20053;-91
2023/01/29 04:11:19;;;;;;;20.40;9.27;;;;;;;2.94;59.34;100564.12;5305424;27;20017;-91
2023/01/29 04:13:45;;;;;;;27.92;9.30;;;;;;;2.94;59.33;100561.56;5282275;27;20056;-92
2023/01/29 04:16:14;;;;;;;26.92;10.25;;;;;;;2.88;59.34;100566.66;5269000;27;20103;-91
2023/01/29 04:18:41;;;;;;;25.70;10.17;;;;;;;2.87;59.33;100568.34;5269081;27;20080;-92
2023/01/29 04:21:06;;;;;;;21.37;8.73;;;;;;;2.76;59.33;100568.19;5269133;27;20072;-92
2023/01/29 04:23:31;;;;;;;20.35;8.82;;;;;;;3.08;59.35;100571.19;5269043;27;20435;-92
2023/01/29 04:26:06;;;;;;;24.25;8.63;;;;;;;2.90;59.34;100567.53;5268973;27;20073;-92
2023/01/29 04:28:55;;;;;;;21.77;8.32;;;;;;;2.85;59.33;100564.91;5287952;27;20100;-90
2023/01/29 04:31:22;;;;;;;22.17;8.00;;;;;;;2.97;59.34;100559.03;5287063;27;20114;-91
2023/01/29 04:34:18;;;;;;;19.35;8.32;;;;;;;3.10;59.35;100552.31;5266787;27;20710;-92
2023/01/29 04:37:06;;;;;;;18.40;8.43;;;;;;;2.80;59.33;100561.38;5288605;27;20429;-91
2023/01/29 04:39:43;;;;;;;24.00;8.93;;;;;;;3.00;59.34;100559.06;5305143;27;20827;-91
2023/01/29 04:42:19;;;;;;;22.50;9.23;;;;;;;3.10;59.35;100568.63;5287001;27;20045;-90
2023/01/29 04:45:00;;;;;;;21.65;8.85;;;;;;;3.12;59.35;100564.34;5287282;27;20104;-90
2023/01/29 04:48:04;;;;;;;22.20;9.43;;;;;;;3.02;59.35;100560.81;5287186;26;20111;-90
2023/01/29 04:50:39;;;;;;;23.95;8.93;;;;;;;2.94;59.35;100567.56;5288627;27;20413;-89
2023/01/29 04:53:20;;;;;;;23.30;9.38;;;;;;;2.99;59.34;100572.75;5274409;27;20068;-90
2023/01/29 04:55:50;;;;;;;19.95;8.13;;;;;;;2.90;59.34;100576.09;5284835;27;20075;-91
2023/01/29 04:58:19;;;;;;;;;;;;;;;3.08;59.34;100565.16;5287938;27;20167;-91
2023/01/29 05:00:45;;;;;;;22.85;8.73;;;;;;;3.02;59.34;100562.50;5305180;27;20403;-90
2023/01/29 05:03:12;;;;;;;25.52;10.30;;;;;;;2.99;59.34;100565.03;5283315;27;20124;-91
2023/01/29 05:05:40;;;;;;;20.02;9.07;;;;;;;3.14;59.35;100570.38;5268815;27;20068;-91
2023/01/29 05:08:05;;;;;;;21.92;9.18;;;;;;;3.24;59.36;100569.63;5286598;27;20127;-91
2023/01/29 05:10:30;;;;;;;21.80;8.90;;;;;;;3.18;59.36;100559.28;5268553;27;20053;-92
2023/01/29 05:13:00;;;;;;;22.33;9.75;;;;;;;3.12;59.35;100559.22;5268869;27;20097;-91
2023/01/29 05:15:37;;;;;;;24.17;9.50;;;;;;;3.11;59.35;100561.78;5278065;27;20030;-92
2023/01/29 05:18:07;;;;;;;22.33;8.63;;;;;;;2.99;59.34;100565.91;5252444;27;20061;-92
2023/01/29 05:20:33;;;;;;;23.12;8.63;;;;;;;3.02;59.34;100570.22;5265814;27;20053;-92
2023/01/29 05:22:58;;;;;;;22.30;8.38;;;;;;;2.93;59.33;100578.69;5268901;27;20052;-91
2023/01/29 05:25:26;;;;;;;25.05;9.18;;;;;;;2.70;59.32;100580.13;5268376;27;20151;-91
2023/01/29 05:28:04;;;;;;;22.30;8.68;;;;;;;2.72;59.32;100578.44;5283832;27;20122;-92
2023/01/29 05:30:34;;;;;;;21.58;9.45;;;;;;;2.74;59.33;100562.19;5290825;27;20066;-91
2023/01/29 05:32:59;;;;;;;19.60;7.57;;;;;;;2.82;59.34;100564.84;5286068;27;20044;-92
2023/01/29 05:35:27;;;;;;;24.02;8.85;;;;;;;2.71;59.32;100562.16;5286842;27;20116;-90
2023/01/29 05:37:53;;;;;;;20.40;9.05;;;;;;;2.80;59.32;100570.81;5269101;27;20064;-91
2023/01/29 05:40:19;;;;;;;18.85;8.35;;;;;;;2.92;59.34;100570.97;5287130;27;20049;-91
2023/01/29 05:42:45;;;;;;;20.08;9.18;;;;;;;3.04;59.35;100573.66;5286687;27;20104;-91
2023/01/29 05:45:11;;;;;;;20.48;8.23;;;;;;;2.93;59.34;100576.13;5268755;27;20681;-91
2023/01/29 05:47:36;;;;;;;20.70;8.27;;;;;;;2.96;59.35;100568.44;5268196;27;20091;-91
2023/01/29 05:50:01;;;;;;;21.77;8.77;;;;;;;3.13;59.35;100571.22;5264432;27;20100;-91
2023/01/29 05:52:27;;;;;;;18.17;8.40;;;;;;;2.99;59.34;100565.91;5246849;27;20125;-92
2023/01/29 05:54:52;;;;;;;23.10;8.77;;;;;;;2.83;59.33;100566.56;5285108;27;20112;-92
2023/01/29 05:57:18;;;;;;;18.23;8.45;;;;;;;2.83;59.33;100568.28;5268504;27;20112;-91
2023/01/29 05:59:43;;;;;;;22.13;8.82;;;;;;;3.05;59.34;100578.84;5268498;27;20112;-92
2023/01/29 06:02:09;;;;;;;16.45;7.55;;;;;;;2.83;59.33;100581.12;5268605;27;20432;-93
2023/01/29 06:04:34;;;;;;;18.90;8.27;;;;;;;2.87;59.33;100578.63;5268436;27;20120;-93
2023/01/29 06:07:02;;;;;;;18.77;8.35;;;;;;;2.97;59.34;100577.03;5268762;27;20358;-93
2023/01/29 06:09:27;;;;;;;22.98;8.50;;;;;;;2.96;59.34;100589.03;5269144;27;20110;-93
2023/01/29 06:11:53;;;;;;;20.00;8.55;;;;;;;3.02;59.35;100581.38;5268341;27;20056;-91
2023/01/29 06:14:18;;;;;;;14.90;6.18;;;;;;;2.91;59.33;100587.25;5268638;27;20406;-91
2023/01/29 06:16:44;;;;;;;19.77;8.30;;;;;;;2.78;59.32;100592.22;5268551;27;20057;-90
2023/01/29 06:19:09;;;;;;;19.12;8.52;;;;;;;2.81;59.34;100595.66;5267810;27;20113;-91
2023/01/29 06:21:34;;;;;;;21.85;8.77;;;;;;;2.82;59.33;100600.84;5268170;27;20103;-91
2023/01/29 06:24:00;;;;;;;16.23;7.15;;;;;;;2.85;59.33;100603.47;5268014;27;20453;-91
2023/01/29 06:26:25;;;;;;;16.73;8.20;;;;;;;2.86;59.33;100596.63;5286337;27;20115;-90
2023/01/29 06:28:51;;;;;;;19.10;8.45;;;;;;;2.90;59.34;100608.66;5286598;27;20104;-90
2023/01/29 06:31:17;;;;;;;20.65;8.02;;;;;;;2.97;59.34;100610.47;5267791;27;20437;-91
2023/01/29 06:33:42;;;;;;;14.48;7.43;;;;;;;2.95;59.33;100609.59;5268734;27;20064;-93
2023/01/29 06:36:08;;;;;;;19.77;8.18;;;;;;;2.80;59.32;100627.37;5268228;27;20370;-90
2023/01/29 06:38:34;;;;;;;16.05;6.50;;;;;;;2.70;59.32;100634.09;5267807;27;20097;-90
2023/01/29 06:40:59;;;;;;;18.05;7.47;;;;;;;2.74;59.33;100636.72;5268165;27;20110;-90
2023/01/29 06:43:24;;;;;;;21.50;8.73;;;;;;;2.81;59.33;100631.66;5267935;27;20113;-89
2023/01/29 06:45:52;;;;;;;18.65;8.18;;;;;;;2.71;59.32;100628.97;5268179;27;20065;-91
2023/01/29 06:48:17;;;;;;;16.45;7.60;;;;;;;2.82;59.33;100633.37;5286030;27;20091;-90
2023/01/29 06:50:43;;;;;;;17.33;7.85;;;;;;;2.61;59.32;100639.12;5267814;27;20060;-89
2023/01/29 06:53:08;;;;;;;15.77;6.85;;;;;;;2.81;59.34;100639.38;5268363;27;20155;-91
2023/01/29 06:55:34;;;;;;;16.83;7.45;;;;;;;2.91;59.33;100636.97;5267889;27;20060;-91
2023/01/29 06:58:02;;;;;;;14.75;6.75;;;;;;;2.77;59.33;100644.47;5268071;27;20060;-92
2023/01/29 07:00:28;;;;;;;14.95;6.93;;;;;;;2.61;59.32;100644.28;5268429;27;20089;-90
2023/01/29 07:02:53;;;;;;;18.67;7.12;;;;;;;2.47;59.31;100638.91;5267806;27;20064;-91
2023/01/29 07:05:19;;;;;;;16.30;7.50;;;;;;;2.61;59.32;100646.84;5268033;27;20060;-91
2023/01/29 07:07:44;;;;;;;22.17;7.93;;;;;;;2.43;59.31;100635.44;5267216;27;20080;-91
2023/01/29 07:10:10;;;;;;;15.77;6.22;;;;;;;2.45;59.31;100630.31;5267749;27;20064;-90
2023/01/29 07:15:20;;;;;;;14.00;5.85;;;;;;;2.59;59.32;100636.50;5291970;27;20822;-91
2023/01/29 07:18:00;;;;;;;15.43;7.28;;;;;;;2.54;59.31;100633.00;5268624;27;20065;-92
2023/01/29 07:20:29;;;;;;;15.88;7.18;;;;;;;2.37;59.31;100631.91;5276843;27;20057;-92
2023/01/29 07:22:57;;;;;;;16.50;6.95;;;;;;;2.56;59.31;100638.16;5266932;27;20095;-90
2023/01/29 07:25:23;;;;;;;14.10;6.82;;;;;;;2.52;59.32;100636.41;5267938;27;20060;-91
2023/01/29 07:27:49;;;;;;;16.55;8.07;;;;;;;2.56;59.31;100626.19;5282716;27;20107;-90
2023/01/29 07:30:15;;;;;;;14.25;6.60;;;;;;;2.72;59.32;100627.28;5267995;27;20096;-90
2023/01/29 07:32:40;;;;;;;15.15;6.28;;;;;;;2.82;59.33;100625.69;5279597;27;20077;-90
2023/01/29 07:35:06;;;;;;;14.32;5.47;;;;;;;2.86;59.33;100624.91;5267910;27;20095;-90
2023/01/29 07:37:31;;;;;;;13.02;6.18;;;;;;;2.91;59.34;100610.37;5277951;27;20053;-90
2023/01/29 07:39:57;;;;;;;11.48;5.07;;;;;;;2.79;59.33;100605.94;5266842;27;20369;-90
2023/01/29 07:42:23;;;;;;;10.80;5.72;;;;;;;2.74;59.33;100608.44;5268003;27;20079;-89
2023/01/29 07:44:48;;;;;;;12.07;5.75;;;;;;;2.63;59.32;100611.75;5267645;27;20082;-89
2023/01/29 07:47:13;;;;;;;10.90;5.37;;;;;;;2.72;59.32;100609.28;5267798;27;20119;-90
2023/01/29 07:49:39;;;;;;;10.50;5.32;;;;;;;2.67;59.33;100596.37;5267092;27;20088;-91
2023/01/29 07:52:04;;;;;;;18.25;7.18;;;;;;;2.57;59.32;100599.63;5267369;27;20106;-90
2023/01/29 07:54:30;;;;;;;15.43;6.15;;;;;;;2.51;59.32;100601.28;5267583;27;20072;-91
2023/01/29 07:56:55;;;;;;;18.45;8.32;;;;;;;2.48;59.31;100609.81;5268000;27;20080;-91
2023/01/29 07:59:21;;;;;;;12.55;6.15;;;;;;;2.57;59.31;100607.34;5267575;27;20091;-91
2023/01/29 08:01:46;;;;;;;12.02;5.07;;;;;;;2.78;59.32;100612.78;5267195;27;20242;-91
2023/01/29 08:04:11;;;;;;;15.45;5.20;;;;;;;2.85;59.33;100612.88;5267938;27;20074;-90
2023/01/29 08:06:37;;;;;;;13.93;5.18;;;;;;;2.47;59.31;100613.22;5268463;27;20076;-89
2023/01/29 08:09:02;;;;;;;10.98;5.32;;;;;;;2.46;59.31;100608.91;5267632;27;20127;-91
2023/01/29 08:11:28;;;;;;;12.35;5.07;;;;;;;2.45;59.32;100608.06;5267571;27;20107;-92
2023/01/29 08:13:54;;;;;;;12.40;4.97;;;;;;;2.29;59.31;100613.78;5267774;27;20064;-90
2023/01/29 08:16:19;;;;;;;11.68;5.20;;;;;;;2.35;59.30;100615.59;5285432;27;20097;-91
2023/01/29 08:18:47;;;;;;;9.98;4.97;;;;;;;2.38;59.31;100618.22;5268026;27;20052;-90
2023/01/29 08:21:12;;;;;;;9.30;4.68;;;;;;;2.46;59.31;100604.62;5269450;27;20071;-90
2023/01/29 08:23:38;;;;;;;12.00;4.97;;;;;;;2.59;59.32;100603.09;5268769;27;20112;-90
2023/01/29 08:26:04;;;;;;;12.07;5.50;;;;;;;2.60;59.32;100611.66;5268514;27;20104;-90
2023/01/29 08:28:29;;;;;;;13.27;5.78;;;;;;;2.73;59.33;100616.16;5268758;27;20093;-90
2023/01/29 08:30:54;;;;;;;11.98;5.07;;;;;;;2.79;59.32;100618.78;5268448;27;20064;-90
2023/01/29 08:33:20;;;;;;;11.63;5.35;;;;;;;2.58;59.32;100621.94;5268679;27;20068;-90
2023/01/29 08:35:49;;;;;;;12.27;5.43;;;;;;;2.65;59.33;100630.63;5268399;27;20056;-90
2023/01/29 08:38:15;;;;;;;13.05;5.95;;;;;;;2.59;59.32;100639.06;5286537;27;20097;-91
2023/01/29 08:40:40;;;;;;;12.07;4.80;;;;;;;2.53;59.31;100626.16;5268341;27;20088;-90
2023/01/29 08:43:06;;;;;;;9.98;4.97;;;;;;;2.45;59.32;100630.31;5268429;27;20065;-90
2023/01/29 08:45:32;;;;;;;10.82;5.03;;;;;;;2.57;59.31;100632.19;5268674;27;20060;-90
2023/01/29 08:47:58;;;;;;;13.38;4.75;;;;;;;2.72;59.33;100643.56;5266865;27;20711;-90
2023/01/29 08:50:23;;;;;;;10.45;4.97;;;;;;;2.62;59.32;100658.84;5268221;27;20060;-90
2023/01/29 08:52:49;;;;;;;11.88;4.93;;;;;;;2.43;59.32;100647.41;5267285;27;20087;-90
2023/01/29 08:55:14;;;;;;;9.90;5.03;;;;;;;2.59;59.32;100653.63;5267071;27;20382;-90
2023/01/29 08:57:39;;;;;;;11.05;4.97;;;;;;;2.48;59.31;100653.50;5267729;27;20099;-90
2023/01/29 09:00:07;;;;;;;9.30;4.43;;;;;;;2.61;59.32;100660.56;5267673;27;20080;-90
2023/01/29 09:02:33;;;;;;;11.20;5.05;;;;;;;2.65;59.33;100666.59;5267791;27;20065;-91
2023/01/29 09:04:58;;;;;;;12.10;5.22;;;;;;;2.42;59.30;100669.69;5267392;27;20061;-91
2023/01/29 09:07:23;;;;;;;12.13;5.28;;;;;;;2.66;59.32;100660.63;5267297;27;20128;-92
2023/01/29 09:09:49;;;;;;;12.57;5.07;;;;;;;2.58;59.33;100668.19;5267200;27;20076;-89
2023/01/29 09:12:14;;;;;;;10.93;4.95;;;;;;;2.56;59.31;100666.44;5267348;27;20106;-90
2023/01/29 09:14:40;;;;;;;10.13;4.72;;;;;;;2.49;59.31;100672.34;5267608;27;20061;-90
2023/01/29 09:17:05;;;;;;;9.48;4.50;;;;;;;2.56;59.32;100671.59;5267836;27;20068;-90
2023/01/29 09:19:31;;;;;;;9.63;4.40;;;;;;;2.63;59.32;100661.44;5266374;27;20120;-91
2023/01/29 09:21:56;;;;;;;11.85;5.50;;;;;;;2.66;59.32;100669.19;5267514;27;20441;-91
2023/01/29 09:24:21;;;;;;;10.20;4.97;;;;;;;2.84;59.34;100665.13;5267267;27;20066;-91
2023/01/29 09:26:47;;;;;;;13.77;4.87;;;;;;;2.80;59.33;100671.06;5267347;27;20129;-90
2023/01/29 09:29:12;;;;;;;10.38;4.47;;;;;;;2.82;59.33;100672.81;5303487;27;20068;-90
2023/01/29 09:31:38;;;;;;;9.88;4.62;;;;;;;2.88;59.34;100666.94;5267338;27;20061;-90
2023/01/29 09:34:03;;;;;;;15.05;5.37;;;;;;;2.98;59.34;100658.47;5267679;27;20067;-90
2023/01/29 09:36:29;;;;;;;11.93;5.00;;;;;;;2.91;59.34;100667.81;5267249;27;20099;-90
2023/01/29 09:38:54;;;;;;;9.55;5.10;;;;;;;2.82;59.33;100669.38;5303431;27;20064;-91
2023/01/29 09:41:50;;;;;;;9.13;4.37;;;;;;;2.50;59.32;100687.78;5267600;27;20079;-90
2023/01/29 09:44:48;;;;;;;9.50;4.90;;;;;;;2.40;59.30;100683.34;5286278;27;20061;-89
2023/01/29 09:47:14;;;;;;;7.15;3.78;;;;;;;2.46;59.31;100688.56;5250017;27;20068;-89
2023/01/29 09:49:42;;;;;;;9.65;4.72;;;;;;;2.48;59.31;100684.31;5264104;27;20069;-90
2023/01/29 09:52:16;;;;;;;13.15;4.70;;;;;;;2.37;59.31;100686.75;5262438;27;20065;-92
2023/01/29 09:55:09;;;;;;;10.48;4.68;;;;;;;2.58;59.33;100682.75;5260804;27;20117;-91
2023/01/29 09:57:51;;;;;;;11.25;4.35;;;;;;;2.63;59.32;100687.13;5237642;27;20045;-91
2023/01/29 10:00:31;;;;;;;8.18;3.40;;;;;;;2.75;59.33;100692.44;5281727;27;20120;-90
2023/01/29 10:03:14;;;;;;;9.85;4.45;;;;;;;2.81;59.33;100694.22;5267049;27;20133;-90
2023/01/29 10:05:52;;;;;;;7.22;3.65;;;;;;;3.02;59.35;100699.69;5265485;27;20057;-91
2023/01/29 10:08:28;;;;;;;10.25;4.28;;;;;;;2.77;59.33;100700.19;5285993;27;20096;-91
2023/01/29 10:11:09;;;;;;;10.63;4.50;;;;;;;2.57;59.31;100699.00;5285773;27;20433;-91
2023/01/29 10:13:59;;;;;;;7.32;3.95;;;;;;;2.51;59.32;100694.66;5265702;27;20088;-90
2023/01/29 10:16:44;;;;;;;9.68;4.07;;;;;;;2.69;59.33;100694.94;5281434;27;20116;-89
2023/01/29 10:19:19;;;;;;;10.00;4.07;;;;;;;2.56;59.31;100700.72;5285688;27;20095;-87
2023/01/29 10:22:09;;;;;;;9.20;3.83;;;;;;;2.52;59.32;100698.94;5285316;27;20060;-89
2023/01/29 10:24:50;;;;;;;9.23;4.15;;;;;;;2.62;59.32;100698.25;5287487;27;20079;-89
2023/01/29 10:27:17;;;;;;;10.35;4.47;;;;;;;2.68;59.33;100694.91;5285852;27;20056;-89
2023/01/29 10:29:43;;;;;;;9.98;3.92;;;;;;;2.80;59.32;100694.22;5264824;27;20065;-91
2023/01/29 10:32:14;;;;;;;7.85;4.25;;;;;;;2.90;59.34;100693.53;5263998;27;20057;-87
2023/01/29 10:34:48;;;;;;;10.75;3.25;;;;;;;2.81;59.34;100693.38;5246047;27;300795;-90
2023/01/29 10:37:20;;;;;;;11.05;4.70;;;;;;;2.64;59.33;100704.28;5272990;27;20061;-90
2023/01/29 10:39:46;;;;;;;8.48;4.28;;;;;;;2.44;59.31;100696.25;5262853;27;20053;-89
2023/01/29 10:42:23;;;;;;;9.98;4.45;;;;;;;2.46;59.31;100696.28;5267209;27;20083;-90
2023/01/29 10:45:08;;;;;;;8.75;3.95;;;;;;;2.42;59.30;100697.09;5303514;27;20068;-88
2023/01/29 10:47:36;;;;;;;9.43;3.97;;;;;;;2.49;59.31;100687.75;5303993;27;20056;-90
2023/01/29 10:50:14;;;;;;;8.65;4.28;;;;;;;2.41;59.30;100685.06;5303440;27;20057;-89
2023/01/29 10:53:14;;;;;;;11.00;4.72;;;;;;;2.37;59.31;100688.44;5286111;27;20100;-90
2023/01/29 10:55:53;;;;;;;11.35;4.03;;;;;;;2.45;59.31;100680.00;5304185;27;20705;-87
2023/01/29 10:58:21;;;;;;;13.23;5.05;;;;;;;2.47;59.31;100680.87;5264928;27;20070;-90
2023/01/29 11:00:48;;;;;;;10.38;4.47;;;;;;;2.46;59.31;100668.88;5280383;27;20078;-89
2023/01/29 11:03:17;;;;;;;11.90;5.30;;;;;;;2.42;59.32;100677.37;5267247;27;20975;-91
2023/01/29 11:05:53;;;;;;;9.50;4.97;;;;;;;2.57;59.32;100660.47;5264592;27;20081;-90
2023/01/29 11:08:20;;;;;;;8.93;4.22;;;;;;;2.73;59.33;100658.16;5285779;27;20123;-91
2023/01/29 11:11:05;;;;;;;13.48;5.18;;;;;;;2.68;59.33;100639.22;5284910;27;20709;-87
2023/01/29 11:13:33;;;;;;;11.10;4.78;;;;;;;2.86;59.33;100643.75;5277188;27;20068;-87
2023/01/29 11:15:58;;;;;;;9.52;5.10;;;;;;;2.86;59.33;100653.19;5266410;27;20143;-88
2023/01/29 11:18:24;;;;;;;11.98;5.87;;;;;;;2.98;59.34;100649.06;5266937;27;20080;-88
2023/01/29 11:20:59;;;;;;;9.18;4.82;;;;;;;3.15;59.35;100648.41;5267160;27;20069;-88
2023/01/29 11:23:29;;;;;;;14.68;5.12;;;;;;;3.22;59.36;100639.91;5263421;27;20115;-87
2023/01/29 11:25:56;;;;;;;9.48;3.90;;;;;;;3.21;59.36;100626.19;5264823;27;20123;-89
2023/01/29 11:28:41;;;;;;;10.20;4.72;;;;;;;3.34;59.36;100628.06;5263660;27;20082;-88
2023/01/29 11:31:22;;;;;;;11.25;4.97;;;;;;;3.19;59.35;100616.72;5272186;27;20087;-88
2023/01/29 11:33:48;;;;;;;9.57;4.85;;;;;;;3.06;59.34;100618.28;5299238;27;20906;-89
2023/01/29 11:36:26;;;;;;;11.48;5.35;;;;;;;2.96;59.34;100609.59;5266867;27;20075;-89
2023/01/29 11:39:07;;;;;;;13.60;5.15;;;;;;;3.12;59.35;100602.94;5284990;27;20052;-89
2023/01/29 11:41:42;;;;;;;10.55;5.05;;;;;;;2.89;59.34;100612.94;5302654;27;20056;-89
2023/01/29 11:44:18;;;;;;;9.80;4.65;;;;;;;3.05;59.34;100601.12;5263738;27;20057;-89
2023/01/29 11:46:43;;;;;;;8.95;4.80;;;;;;;3.23;59.35;100608.19;5279827;27;20060;-88
2023/01/29 11:49:19;;;;;;;10.10;5.25;;;;;;;3.14;59.35;100592.66;5267013;27;20124;-89
2023/01/29 11:51:44;;;;;;;7.93;4.10;;;;;;;3.02;59.34;100595.94;5267852;27;20118;-89
2023/01/29 11:54:11;;;;;;;9.93;4.65;;;;;;;3.16;59.34;100578.97;5267361;27;20406;-89
2023/01/29 11:56:41;;;;;;;8.98;3.95;;;;;;;3.20;59.35;100578.16;5268369;27;20064;-89
2023/01/29 11:59:27;;;;;;;9.70;4.40;;;;;;;3.13;59.35;100576.37;5267921;27;20075;-89
2023/01/29 12:01:53;;;;;;;9.30;4.32;;;;;;;3.27;59.36;100577.38;5269706;27;20052;-90
2023/01/29 12:04:20;;;;;;;8.50;4.20;;;;;;;3.18;59.35;100577.28;5267813;27;20405;-89
2023/01/29 12:06:47;;;;;;;9.23;4.53;;;;;;;3.26;59.36;100570.50;5267967;27;20076;-88